sensor_id;sensor_type;location;lat;lon;timestamp;P1;durP1;ratioP1;P2;durP2;ratioP2
42084;SDS011;27746;52.228;20.890;2024-02-26T00:01:15;27.33;;;14.15;;
42084;SDS011;27746;52.228;20.890;2024-02-26T00:03:43;27.38;;;14.82;;
42084;SDS011;27746;52.228;20.890;2024-02-26T00:06:12;25.98;;;14.35;;
42084;SDS011;27746;52.228;20.890;2024-02-26T00:08:39;24.75;;;15.00;;
42084;SDS011;27746;52.228;20.890;2024-02-26T00:11:06;24.05;;;14.05;;
42084;SDS011;27746;52.228;20.890;2024-02-26T00:13:33;26.15;;;15.10;;
42084;SDS011;27746;52.228;20.890;2024-02-26T00:15:59;23.85;;;14.18;;
42084;SDS011;27746;52.228;20.890;2024-02-26T00:18:26;23.42;;;13.18;;
42084;SDS011;27746;52.228;20.890;2024-02-26T00:20:55;26.50;;;14.48;;
42084;SDS011;27746;52.228;20.890;2024-02-26T00:23:21;24.92;;;13.13;;
42084;SDS011;27746;52.228;20.890;2024-02-26T00:25:49;24.10;;;13.50;;
42084;SDS011;27746;52.228;20.890;2024-02-26T00:28:16;23.90;;;13.45;;
42084;SDS011;27746;52.228;20.890;2024-02-26T00:30:44;30.42;;;13.93;;
42084;SDS011;27746;52.228;20.890;2024-02-26T00:33:11;26.25;;;13.85;;
42084;SDS011;27746;52.228;20.890;2024-02-26T00:35:38;27.20;;;13.02;;
42084;SDS011;27746;52.228;20.890;2024-02-26T00:38:09;25.55;;;14.45;;
42084;SDS011;27746;52.228;20.890;2024-02-26T00:40:36;31.38;;;15.10;;
42084;SDS011;27746;52.228;20.890;2024-02-26T00:43:03;29.10;;;14.95;;
42084;SDS011;27746;52.228;20.890;2024-02-26T00:45:30;27.65;;;14.82;;
42084;SDS011;27746;52.228;20.890;2024-02-26T00:47:59;31.52;;;14.45;;
42084;SDS011;27746;52.228;20.890;2024-02-26T00:50:30;27.98;;;14.07;;
42084;SDS011;27746;52.228;20.890;2024-02-26T00:52:57;27.27;;;14.00;;
42084;SDS011;27746;52.228;20.890;2024-02-26T00:55:25;29.17;;;15.05;;
42084;SDS011;27746;52.228;20.890;2024-02-26T00:57:52;27.33;;;15.52;;
42084;SDS011;27746;52.228;20.890;2024-02-26T01:00:19;30.58;;;15.35;;
42084;SDS011;27746;52.228;20.890;2024-02-26T01:02:46;32.45;;;15.32;;
42084;SDS011;27746;52.228;20.890;2024-02-26T01:05:13;28.35;;;15.25;;
42084;SDS011;27746;52.228;20.890;2024-02-26T01:07:41;31.73;;;15.65;;
42084;SDS011;27746;52.228;20.890;2024-02-26T01:10:09;30.67;;;16.00;;
42084;SDS011;27746;52.228;20.890;2024-02-26T01:12:37;26.48;;;14.82;;
42084;SDS011;27746;52.228;20.890;2024-02-26T01:15:04;29.15;;;16.13;;
42084;SDS011;27746;52.228;20.890;2024-02-26T01:17:32;27.98;;;16.15;;
42084;SDS011;27746;52.228;20.890;2024-02-26T01:19:58;27.70;;;15.85;;
42084;SDS011;27746;52.228;20.890;2024-02-26T01:22:25;31.30;;;15.65;;
42084;SDS011;27746;52.228;20.890;2024-02-26T01:24:52;27.75;;;15.07;;
42084;SDS011;27746;52.228;20.890;2024-02-26T01:27:19;32.47;;;16.13;;
42084;SDS011;27746;52.228;20.890;2024-02-26T01:29:47;31.08;;;16.38;;
42084;SDS011;27746;52.228;20.890;2024-02-26T01:32:14;35.17;;;15.82;;
42084;SDS011;27746;52.228;20.890;2024-02-26T01:34:41;31.60;;;15.95;;
42084;SDS011;27746;52.228;20.890;2024-02-26T01:37:08;30.42;;;17.77;;
42084;SDS011;27746;52.228;20.890;2024-02-26T01:39:35;29.83;;;15.82;;
42084;SDS011;27746;52.228;20.890;2024-02-26T01:42:02;32.53;;;17.00;;
42084;SDS011;27746;52.228;20.890;2024-02-26T01:44:29;31.40;;;15.98;;
42084;SDS011;27746;52.228;20.890;2024-02-26T01:46:57;31.58;;;17.15;;
42084;SDS011;27746;52.228;20.890;2024-02-26T01:49:26;30.65;;;15.35;;
42084;SDS011;27746;52.228;20.890;2024-02-26T01:51:54;30.10;;;16.85;;
42084;SDS011;27746;52.228;20.890;2024-02-26T01:54:22;31.27;;;16.85;;
42084;SDS011;27746;52.228;20.890;2024-02-26T01:56:49;30.17;;;15.32;;
42084;SDS011;27746;52.228;20.890;2024-02-26T01:59:16;26.95;;;14.80;;
42084;SDS011;27746;52.228;20.890;2024-02-26T02:01:48;28.83;;;16.20;;
42084;SDS011;27746;52.228;20.890;2024-02-26T02:04:22;28.63;;;15.90;;
42084;SDS011;27746;52.228;20.890;2024-02-26T02:06:49;28.33;;;16.80;;
42084;SDS011;27746;52.228;20.890;2024-02-26T02:09:18;27.63;;;16.02;;
42084;SDS011;27746;52.228;20.890;2024-02-26T02:11:45;32.28;;;17.30;;
42084;SDS011;27746;52.228;20.890;2024-02-26T02:14:13;31.88;;;17.30;;
42084;SDS011;27746;52.228;20.890;2024-02-26T02:16:40;28.00;;;15.02;;
42084;SDS011;27746;52.228;20.890;2024-02-26T02:19:07;29.83;;;16.10;;
42084;SDS011;27746;52.228;20.890;2024-02-26T02:21:35;32.17;;;17.13;;
42084;SDS011;27746;52.228;20.890;2024-02-26T02:24:02;30.83;;;16.45;;
42084;SDS011;27746;52.228;20.890;2024-02-26T02:26:29;28.80;;;15.77;;
42084;SDS011;27746;52.228;20.890;2024-02-26T02:28:56;31.40;;;16.95;;
42084;SDS011;27746;52.228;20.890;2024-02-26T02:31:24;28.38;;;15.40;;
42084;SDS011;27746;52.228;20.890;2024-02-26T02:33:51;29.60;;;16.63;;
42084;SDS011;27746;52.228;20.890;2024-02-26T02:36:18;31.58;;;17.13;;
42084;SDS011;27746;52.228;20.890;2024-02-26T02:38:49;28.40;;;15.63;;
42084;SDS011;27746;52.228;20.890;2024-02-26T02:41:17;31.25;;;16.95;;
42084;SDS011;27746;52.228;20.890;2024-02-26T02:43:44;30.67;;;16.75;;
42084;SDS011;27746;52.228;20.890;2024-02-26T02:46:11;32.22;;;14.57;;
42084;SDS011;27746;52.228;20.890;2024-02-26T02:48:41;28.38;;;16.02;;
42084;SDS011;27746;52.228;20.890;2024-02-26T02:51:08;29.65;;;17.10;;
42084;SDS011;27746;52.228;20.890;2024-02-26T02:53:35;27.98;;;16.17;;
42084;SDS011;27746;52.228;20.890;2024-02-26T02:56:04;28.13;;;15.05;;
42084;SDS011;27746;52.228;20.890;2024-02-26T02:58:31;29.67;;;14.30;;
42084;SDS011;27746;52.228;20.890;2024-02-26T03:00:58;29.58;;;15.15;;
42084;SDS011;27746;52.228;20.890;2024-02-26T03:03:25;29.05;;;15.68;;
42084;SDS011;27746;52.228;20.890;2024-02-26T03:05:53;29.10;;;14.88;;
42084;SDS011;27746;52.228;20.890;2024-02-26T03:08:21;28.17;;;15.50;;
42084;SDS011;27746;52.228;20.890;2024-02-26T03:10:48;29.17;;;16.27;;
42084;SDS011;27746;52.228;20.890;2024-02-26T03:13:17;28.77;;;16.52;;
42084;SDS011;27746;52.228;20.890;2024-02-26T03:15:44;28.10;;;17.05;;
42084;SDS011;27746;52.228;20.890;2024-02-26T03:18:10;33.45;;;16.27;;
42084;SDS011;27746;52.228;20.890;2024-02-26T03:20:37;31.75;;;15.48;;
42084;SDS011;27746;52.228;20.890;2024-02-26T03:23:04;28.98;;;15.52;;
42084;SDS011;27746;52.228;20.890;2024-02-26T03:25:31;27.25;;;15.13;;
42084;SDS011;27746;52.228;20.890;2024-02-26T03:27:58;28.27;;;15.85;;
42084;SDS011;27746;52.228;20.890;2024-02-26T03:30:26;31.02;;;16.15;;
42084;SDS011;27746;52.228;20.890;2024-02-26T03:32:53;32.60;;;16.40;;
42084;SDS011;27746;52.228;20.890;2024-02-26T03:35:20;28.25;;;15.80;;
42084;SDS011;27746;52.228;20.890;2024-02-26T03:37:47;30.20;;;15.05;;
42084;SDS011;27746;52.228;20.890;2024-02-26T03:40:15;29.92;;;16.33;;
42084;SDS011;27746;52.228;20.890;2024-02-26T03:42:44;27.10;;;16.48;;
42084;SDS011;27746;52.228;20.890;2024-02-26T03:45:11;31.33;;;16.15;;
42084;SDS011;27746;52.228;20.890;2024-02-26T03:47:40;33.08;;;16.58;;
42084;SDS011;27746;52.228;20.890;2024-02-26T03:50:07;31.27;;;17.00;;
42084;SDS011;27746;52.228;20.890;2024-02-26T03:52:34;29.30;;;15.82;;
42084;SDS011;27746;52.228;20.890;2024-02-26T03:55:01;28.45;;;16.02;;
42084;SDS011;27746;52.228;20.890;2024-02-26T03:57:28;26.85;;;15.82;;
42084;SDS011;27746;52.228;20.890;2024-02-26T03:59:55;27.95;;;15.27;;
42084;SDS011;27746;52.228;20.890;2024-02-26T04:02:22;30.42;;;16.27;;
42084;SDS011;27746;52.228;20.890;2024-02-26T04:04:52;28.90;;;15.48;;
42084;SDS011;27746;52.228;20.890;2024-02-26T04:07:18;28.15;;;15.10;;
42084;SDS011;27746;52.228;20.890;2024-02-26T04:09:45;32.33;;;16.30;;
42084;SDS011;27746;52.228;20.890;2024-02-26T04:12:12;27.23;;;15.05;;
42084;SDS011;27746;52.228;20.890;2024-02-26T04:14:39;28.17;;;14.15;;
42084;SDS011;27746;52.228;20.890;2024-02-26T04:17:06;29.33;;;16.35;;
42084;SDS011;27746;52.228;20.890;2024-02-26T04:19:33;27.30;;;14.85;;
42084;SDS011;27746;52.228;20.890;2024-02-26T04:22:02;27.98;;;15.07;;
42084;SDS011;27746;52.228;20.890;2024-02-26T04:24:30;28.45;;;15.82;;
42084;SDS011;27746;52.228;20.890;2024-02-26T04:26:57;27.75;;;15.70;;
42084;SDS011;27746;52.228;20.890;2024-02-26T04:29:24;29.88;;;14.63;;
42084;SDS011;27746;52.228;20.890;2024-02-26T04:31:49;29.15;;;14.15;;
42084;SDS011;27746;52.228;20.890;2024-02-26T04:34:16;25.95;;;14.65;;
42084;SDS011;27746;52.228;20.890;2024-02-26T04:36:43;28.67;;;14.65;;
42084;SDS011;27746;52.228;20.890;2024-02-26T04:39:11;28.35;;;15.70;;
42084;SDS011;27746;52.228;20.890;2024-02-26T04:41:38;30.85;;;14.80;;
42084;SDS011;27746;52.228;20.890;2024-02-26T04:44:05;31.27;;;16.55;;
42084;SDS011;27746;52.228;20.890;2024-02-26T04:46:32;25.23;;;14.30;;
42084;SDS011;27746;52.228;20.890;2024-02-26T04:48:59;27.80;;;15.60;;
42084;SDS011;27746;52.228;20.890;2024-02-26T04:51:26;27.58;;;14.52;;
42084;SDS011;27746;52.228;20.890;2024-02-26T04:53:53;25.58;;;14.13;;
42084;SDS011;27746;52.228;20.890;2024-02-26T04:56:22;26.05;;;14.90;;
42084;SDS011;27746;52.228;20.890;2024-02-26T04:58:48;27.60;;;14.98;;
42084;SDS011;27746;52.228;20.890;2024-02-26T05:01:15;28.10;;;15.18;;
42084;SDS011;27746;52.228;20.890;2024-02-26T05:03:42;26.60;;;15.10;;
42084;SDS011;27746;52.228;20.890;2024-02-26T05:06:09;28.30;;;13.90;;
42084;SDS011;27746;52.228;20.890;2024-02-26T05:08:36;25.95;;;14.55;;
42084;SDS011;27746;52.228;20.890;2024-02-26T05:11:03;32.13;;;15.57;;
42084;SDS011;27746;52.228;20.890;2024-02-26T05:13:32;33.78;;;15.85;;
42084;SDS011;27746;52.228;20.890;2024-02-26T05:15:59;26.73;;;14.95;;
42084;SDS011;27746;52.228;20.890;2024-02-26T05:18:26;28.45;;;15.38;;
42084;SDS011;27746;52.228;20.890;2024-02-26T05:20:54;34.75;;;15.60;;
42084;SDS011;27746;52.228;20.890;2024-02-26T05:23:20;26.23;;;14.73;;
42084;SDS011;27746;52.228;20.890;2024-02-26T05:25:48;26.90;;;15.48;;
42084;SDS011;27746;52.228;20.890;2024-02-26T05:28:15;27.45;;;15.10;;
42084;SDS011;27746;52.228;20.890;2024-02-26T05:30:44;26.65;;;15.05;;
42084;SDS011;27746;52.228;20.890;2024-02-26T05:33:11;24.80;;;14.57;;
42084;SDS011;27746;52.228;20.890;2024-02-26T05:35:38;28.17;;;15.82;;
42084;SDS011;27746;52.228;20.890;2024-02-26T05:38:05;26.20;;;15.05;;
42084;SDS011;27746;52.228;20.890;2024-02-26T05:40:32;27.00;;;15.45;;
42084;SDS011;27746;52.228;20.890;2024-02-26T05:42:59;27.02;;;15.35;;
42084;SDS011;27746;52.228;20.890;2024-02-26T05:45:26;29.40;;;15.05;;
42084;SDS011;27746;52.228;20.890;2024-02-26T05:47:54;30.55;;;15.73;;
42084;SDS011;27746;52.228;20.890;2024-02-26T05:50:21;27.90;;;14.25;;
42084;SDS011;27746;52.228;20.890;2024-02-26T05:52:48;30.35;;;16.52;;
42084;SDS011;27746;52.228;20.890;2024-02-26T05:55:15;25.25;;;14.45;;
42084;SDS011;27746;52.228;20.890;2024-02-26T05:57:42;29.63;;;15.85;;
42084;SDS011;27746;52.228;20.890;2024-02-26T06:00:11;30.02;;;15.80;;
42084;SDS011;27746;52.228;20.890;2024-02-26T06:02:39;31.13;;;16.05;;
42084;SDS011;27746;52.228;20.890;2024-02-26T06:05:07;29.60;;;17.00;;
42084;SDS011;27746;52.228;20.890;2024-02-26T06:07:34;28.13;;;15.98;;
42084;SDS011;27746;52.228;20.890;2024-02-26T06:10:01;28.00;;;15.25;;
42084;SDS011;27746;52.228;20.890;2024-02-26T06:12:29;31.20;;;15.35;;
42084;SDS011;27746;52.228;20.890;2024-02-26T06:14:57;29.83;;;15.27;;
42084;SDS011;27746;52.228;20.890;2024-02-26T06:17:26;28.65;;;16.42;;
42084;SDS011;27746;52.228;20.890;2024-02-26T06:19:53;31.58;;;16.83;;
42084;SDS011;27746;52.228;20.890;2024-02-26T06:22:21;29.70;;;16.05;;
42084;SDS011;27746;52.228;20.890;2024-02-26T06:24:48;25.63;;;15.00;;
42084;SDS011;27746;52.228;20.890;2024-02-26T06:27:15;28.58;;;15.80;;
42084;SDS011;27746;52.228;20.890;2024-02-26T06:29:42;31.33;;;16.33;;
42084;SDS011;27746;52.228;20.890;2024-02-26T06:32:08;31.08;;;16.35;;
42084;SDS011;27746;52.228;20.890;2024-02-26T06:34:35;31.77;;;15.88;;
42084;SDS011;27746;52.228;20.890;2024-02-26T06:37:03;31.58;;;16.85;;
42084;SDS011;27746;52.228;20.890;2024-02-26T06:39:31;33.33;;;16.80;;
42084;SDS011;27746;52.228;20.890;2024-02-26T06:41:58;31.63;;;16.77;;
42084;SDS011;27746;52.228;20.890;2024-02-26T06:44:26;36.80;;;16.67;;
42084;SDS011;27746;52.228;20.890;2024-02-26T06:46:56;30.38;;;17.40;;
42084;SDS011;27746;52.228;20.890;2024-02-26T06:49:24;39.15;;;17.88;;
42084;SDS011;27746;52.228;20.890;2024-02-26T06:51:51;39.20;;;17.10;;
42084;SDS011;27746;52.228;20.890;2024-02-26T06:54:18;39.45;;;18.25;;
42084;SDS011;27746;52.228;20.890;2024-02-26T06:56:47;35.97;;;16.40;;
42084;SDS011;27746;52.228;20.890;2024-02-26T06:59:13;44.25;;;18.40;;
42084;SDS011;27746;52.228;20.890;2024-02-26T07:01:41;37.42;;;17.00;;
42084;SDS011;27746;52.228;20.890;2024-02-26T07:04:08;30.65;;;16.20;;
42084;SDS011;27746;52.228;20.890;2024-02-26T07:06:36;27.10;;;15.73;;
42084;SDS011;27746;52.228;20.890;2024-02-26T07:09:03;28.20;;;15.20;;
42084;SDS011;27746;52.228;20.890;2024-02-26T07:11:30;28.45;;;15.85;;
42084;SDS011;27746;52.228;20.890;2024-02-26T07:13:58;27.77;;;15.43;;
42084;SDS011;27746;52.228;20.890;2024-02-26T07:16:26;30.15;;;15.43;;
42084;SDS011;27746;52.228;20.890;2024-02-26T07:18:53;32.75;;;16.60;;
42084;SDS011;27746;52.228;20.890;2024-02-26T07:21:20;29.02;;;15.50;;
42084;SDS011;27746;52.228;20.890;2024-02-26T07:23:46;26.90;;;14.50;;
42084;SDS011;27746;52.228;20.890;2024-02-26T07:26:13;29.67;;;15.20;;
42084;SDS011;27746;52.228;20.890;2024-02-26T07:28:42;25.15;;;14.05;;
42084;SDS011;27746;52.228;20.890;2024-02-26T07:31:10;33.03;;;15.20;;
42084;SDS011;27746;52.228;20.890;2024-02-26T07:33:37;31.40;;;14.63;;
42084;SDS011;27746;52.228;20.890;2024-02-26T07:36:04;27.85;;;14.95;;
42084;SDS011;27746;52.228;20.890;2024-02-26T07:38:31;25.35;;;14.57;;
42084;SDS011;27746;52.228;20.890;2024-02-26T07:40:58;23.90;;;13.60;;
42084;SDS011;27746;52.228;20.890;2024-02-26T07:43:25;22.02;;;12.80;;
42084;SDS011;27746;52.228;20.890;2024-02-26T07:45:52;23.02;;;13.77;;
42084;SDS011;27746;52.228;20.890;2024-02-26T07:48:22;21.48;;;13.00;;
42084;SDS011;27746;52.228;20.890;2024-02-26T07:50:49;19.92;;;12.73;;
42084;SDS011;27746;52.228;20.890;2024-02-26T07:53:16;24.33;;;13.52;;
42084;SDS011;27746;52.228;20.890;2024-02-26T07:55:43;20.90;;;13.20;;
42084;SDS011;27746;52.228;20.890;2024-02-26T07:58:10;23.77;;;14.65;;
42084;SDS011;27746;52.228;20.890;2024-02-26T08:00:37;25.70;;;14.05;;
42084;SDS011;27746;52.228;20.890;2024-02-26T08:03:04;20.40;;;14.05;;
42084;SDS011;27746;52.228;20.890;2024-02-26T08:05:32;23.65;;;14.50;;
42084;SDS011;27746;52.228;20.890;2024-02-26T08:07:59;24.58;;;13.15;;
42084;SDS011;27746;52.228;20.890;2024-02-26T08:10:26;26.63;;;14.13;;
42084;SDS011;27746;52.228;20.890;2024-02-26T08:12:53;23.58;;;13.55;;
42084;SDS011;27746;52.228;20.890;2024-02-26T08:15:20;20.73;;;12.70;;
42084;SDS011;27746;52.228;20.890;2024-02-26T08:17:47;18.88;;;12.18;;
42084;SDS011;27746;52.228;20.890;2024-02-26T08:20:14;23.98;;;12.68;;
42084;SDS011;27746;52.228;20.890;2024-02-26T08:22:45;21.75;;;12.32;;
42084;SDS011;27746;52.228;20.890;2024-02-26T08:25:12;20.75;;;13.65;;
42084;SDS011;27746;52.228;20.890;2024-02-26T08:27:39;21.17;;;12.07;;
42084;SDS011;27746;52.228;20.890;2024-02-26T08:30:07;19.80;;;12.02;;
42084;SDS011;27746;52.228;20.890;2024-02-26T08:32:35;23.67;;;13.98;;
42084;SDS011;27746;52.228;20.890;2024-02-26T08:35:02;23.02;;;13.38;;
42084;SDS011;27746;52.228;20.890;2024-02-26T08:37:29;19.35;;;12.85;;
42084;SDS011;27746;52.228;20.890;2024-02-26T08:39:58;20.65;;;12.93;;
42084;SDS011;27746;52.228;20.890;2024-02-26T08:42:25;23.13;;;12.75;;
42084;SDS011;27746;52.228;20.890;2024-02-26T08:44:52;21.55;;;12.50;;
42084;SDS011;27746;52.228;20.890;2024-02-26T08:47:19;22.73;;;13.55;;
42084;SDS011;27746;52.228;20.890;2024-02-26T08:49:47;20.52;;;13.25;;
42084;SDS011;27746;52.228;20.890;2024-02-26T08:52:14;21.80;;;13.32;;
42084;SDS011;27746;52.228;20.890;2024-02-26T08:54:41;22.50;;;13.20;;
42084;SDS011;27746;52.228;20.890;2024-02-26T08:57:11;19.63;;;13.32;;
42084;SDS011;27746;52.228;20.890;2024-02-26T08:59:39;22.58;;;13.60;;
42084;SDS011;27746;52.228;20.890;2024-02-26T09:02:06;20.27;;;12.80;;
42084;SDS011;27746;52.228;20.890;2024-02-26T09:04:40;17.90;;;12.43;;
42084;SDS011;27746;52.228;20.890;2024-02-26T09:07:07;23.75;;;13.40;;
42084;SDS011;27746;52.228;20.890;2024-02-26T09:09:34;18.35;;;12.07;;
42084;SDS011;27746;52.228;20.890;2024-02-26T09:12:01;19.90;;;12.82;;
42084;SDS011;27746;52.228;20.890;2024-02-26T09:14:30;18.48;;;11.70;;
42084;SDS011;27746;52.228;20.890;2024-02-26T09:16:57;16.88;;;11.55;;
42084;SDS011;27746;52.228;20.890;2024-02-26T09:19:24;16.88;;;10.98;;
42084;SDS011;27746;52.228;20.890;2024-02-26T09:21:52;17.63;;;11.70;;
42084;SDS011;27746;52.228;20.890;2024-02-26T09:24:22;19.48;;;12.57;;
42084;SDS011;27746;52.228;20.890;2024-02-26T09:26:49;21.60;;;12.77;;
42084;SDS011;27746;52.228;20.890;2024-02-26T09:29:16;18.55;;;12.70;;
42084;SDS011;27746;52.228;20.890;2024-02-26T09:31:47;18.90;;;11.30;;
42084;SDS011;27746;52.228;20.890;2024-02-26T09:34:14;19.48;;;11.75;;
42084;SDS011;27746;52.228;20.890;2024-02-26T09:36:41;14.38;;;10.20;;
42084;SDS011;27746;52.228;20.890;2024-02-26T09:39:08;16.67;;;10.50;;
42084;SDS011;27746;52.228;20.890;2024-02-26T09:41:39;15.57;;;10.43;;
42084;SDS011;27746;52.228;20.890;2024-02-26T09:44:08;14.98;;;10.00;;
42084;SDS011;27746;52.228;20.890;2024-02-26T09:46:36;18.20;;;10.25;;
42084;SDS011;27746;52.228;20.890;2024-02-26T09:49:05;12.98;;;10.50;;
42084;SDS011;27746;52.228;20.890;2024-02-26T09:51:35;14.50;;;9.73;;
42084;SDS011;27746;52.228;20.890;2024-02-26T09:54:02;13.00;;;9.02;;
42084;SDS011;27746;52.228;20.890;2024-02-26T09:56:29;14.48;;;10.77;;
42084;SDS011;27746;52.228;20.890;2024-02-26T09:58:57;12.95;;;9.80;;
42084;SDS011;27746;52.228;20.890;2024-02-26T10:01:25;16.98;;;10.85;;
42084;SDS011;27746;52.228;20.890;2024-02-26T10:03:54;14.77;;;10.00;;
42084;SDS011;27746;52.228;20.890;2024-02-26T10:06:28;14.32;;;10.98;;
42084;SDS011;27746;52.228;20.890;2024-02-26T10:08:55;20.85;;;11.38;;
42084;SDS011;27746;52.228;20.890;2024-02-26T10:11:23;14.25;;;11.00;;
42084;SDS011;27746;52.228;20.890;2024-02-26T10:13:54;14.18;;;11.35;;
42084;SDS011;27746;52.228;20.890;2024-02-26T10:16:21;22.25;;;11.70;;
42084;SDS011;27746;52.228;20.890;2024-02-26T10:18:50;16.65;;;9.68;;
42084;SDS011;27746;52.228;20.890;2024-02-26T10:21:18;17.08;;;9.82;;
42084;SDS011;27746;52.228;20.890;2024-02-26T10:23:47;15.07;;;8.75;;
42084;SDS011;27746;52.228;20.890;2024-02-26T10:26:14;14.98;;;10.77;;
42084;SDS011;27746;52.228;20.890;2024-02-26T10:28:44;14.52;;;9.48;;
42084;SDS011;27746;52.228;20.890;2024-02-26T10:31:13;14.82;;;10.07;;
42084;SDS011;27746;52.228;20.890;2024-02-26T10:33:40;14.55;;;9.85;;
42084;SDS011;27746;52.228;20.890;2024-02-26T10:36:09;15.18;;;9.77;;
42084;SDS011;27746;52.228;20.890;2024-02-26T10:38:36;13.68;;;8.85;;
42084;SDS011;27746;52.228;20.890;2024-02-26T10:41:06;11.82;;;8.10;;
42084;SDS011;27746;52.228;20.890;2024-02-26T10:43:33;12.15;;;8.55;;
42084;SDS011;27746;52.228;20.890;2024-02-26T10:46:00;14.93;;;8.40;;
42084;SDS011;27746;52.228;20.890;2024-02-26T10:48:27;12.38;;;8.75;;
42084;SDS011;27746;52.228;20.890;2024-02-26T10:50:54;17.25;;;8.98;;
42084;SDS011;27746;52.228;20.890;2024-02-26T10:53:22;16.25;;;9.77;;
42084;SDS011;27746;52.228;20.890;2024-02-26T10:55:52;17.92;;;10.38;;
42084;SDS011;27746;52.228;20.890;2024-02-26T10:58:23;17.88;;;9.32;;
42084;SDS011;27746;52.228;20.890;2024-02-26T11:00:51;19.23;;;11.00;;
42084;SDS011;27746;52.228;20.890;2024-02-26T11:03:18;24.83;;;11.70;;
42084;SDS011;27746;52.228;20.890;2024-02-26T11:05:47;15.75;;;10.85;;
42084;SDS011;27746;52.228;20.890;2024-02-26T11:08:15;16.13;;;10.13;;
42084;SDS011;27746;52.228;20.890;2024-02-26T11:10:44;22.33;;;10.38;;
42084;SDS011;27746;52.228;20.890;2024-02-26T11:13:14;17.60;;;10.50;;
42084;SDS011;27746;52.228;20.890;2024-02-26T11:15:44;15.38;;;11.00;;
42084;SDS011;27746;52.228;20.890;2024-02-26T11:18:13;17.73;;;10.80;;
42084;SDS011;27746;52.228;20.890;2024-02-26T11:20:41;14.43;;;9.80;;
42084;SDS011;27746;52.228;20.890;2024-02-26T11:23:09;17.77;;;10.10;;
42084;SDS011;27746;52.228;20.890;2024-02-26T11:25:36;16.48;;;10.93;;
42084;SDS011;27746;52.228;20.890;2024-02-26T11:28:05;19.92;;;11.35;;
42084;SDS011;27746;52.228;20.890;2024-02-26T11:30:35;16.90;;;9.98;;
42084;SDS011;27746;52.228;20.890;2024-02-26T11:33:08;18.70;;;9.27;;
42084;SDS011;27746;52.228;20.890;2024-02-26T11:35:37;14.90;;;8.65;;
42084;SDS011;27746;52.228;20.890;2024-02-26T11:38:04;12.90;;;6.85;;
42084;SDS011;27746;52.228;20.890;2024-02-26T11:40:32;9.55;;;6.35;;
42084;SDS011;27746;52.228;20.890;2024-02-26T11:43:00;11.90;;;7.32;;
42084;SDS011;27746;52.228;20.890;2024-02-26T11:48:21;15.07;;;7.32;;
42084;SDS011;27746;52.228;20.890;2024-02-26T11:50:49;11.23;;;6.95;;
42084;SDS011;27746;52.228;20.890;2024-02-26T11:53:19;8.48;;;6.32;;
42084;SDS011;27746;52.228;20.890;2024-02-26T11:55:46;8.35;;;6.68;;
42084;SDS011;27746;52.228;20.890;2024-02-26T11:58:13;10.98;;;7.88;;
42084;SDS011;27746;52.228;20.890;2024-02-26T12:00:42;8.15;;;5.63;;
42084;SDS011;27746;52.228;20.890;2024-02-26T12:03:09;8.80;;;5.13;;
42084;SDS011;27746;52.228;20.890;2024-02-26T12:05:38;7.10;;;4.57;;
42084;SDS011;27746;52.228;20.890;2024-02-26T12:08:06;8.50;;;4.82;;
42084;SDS011;27746;52.228;20.890;2024-02-26T12:10:35;5.63;;;4.32;;
42084;SDS011;27746;52.228;20.890;2024-02-26T12:13:04;7.00;;;4.80;;
42084;SDS011;27746;52.228;20.890;2024-02-26T12:15:36;7.00;;;4.57;;
42084;SDS011;27746;52.228;20.890;2024-02-26T12:18:03;7.53;;;4.82;;
42084;SDS011;27746;52.228;20.890;2024-02-26T12:20:32;8.60;;;4.00;;
42084;SDS011;27746;52.228;20.890;2024-02-26T12:23:00;7.07;;;4.60;;
42084;SDS011;27746;52.228;20.890;2024-02-26T12:25:29;10.65;;;5.47;;
42084;SDS011;27746;52.228;20.890;2024-02-26T12:27:57;11.48;;;5.85;;
42084;SDS011;27746;52.228;20.890;2024-02-26T12:30:25;5.88;;;4.75;;
42084;SDS011;27746;52.228;20.890;2024-02-26T12:32:54;10.02;;;5.25;;
42084;SDS011;27746;52.228;20.890;2024-02-26T12:35:23;7.13;;;4.68;;
42084;SDS011;27746;52.228;20.890;2024-02-26T12:37:50;8.73;;;5.28;;
42084;SDS011;27746;52.228;20.890;2024-02-26T12:40:20;6.35;;;4.50;;
42084;SDS011;27746;52.228;20.890;2024-02-26T12:42:47;7.55;;;4.10;;
42084;SDS011;27746;52.228;20.890;2024-02-26T12:45:14;7.10;;;4.00;;
42084;SDS011;27746;52.228;20.890;2024-02-26T12:47:41;7.57;;;4.40;;
42084;SDS011;27746;52.228;20.890;2024-02-26T12:50:11;4.93;;;3.70;;
42084;SDS011;27746;52.228;20.890;2024-02-26T12:52:39;6.25;;;4.18;;
42084;SDS011;27746;52.228;20.890;2024-02-26T12:55:07;7.30;;;4.10;;
42084;SDS011;27746;52.228;20.890;2024-02-26T12:57:37;7.45;;;3.65;;
42084;SDS011;27746;52.228;20.890;2024-02-26T13:00:07;4.77;;;3.23;;
42084;SDS011;27746;52.228;20.890;2024-02-26T13:02:37;6.03;;;3.40;;
42084;SDS011;27746;52.228;20.890;2024-02-26T13:05:05;6.72;;;3.75;;
42084;SDS011;27746;52.228;20.890;2024-02-26T13:07:40;10.10;;;4.47;;
42084;SDS011;27746;52.228;20.890;2024-02-26T13:10:08;8.55;;;4.13;;
42084;SDS011;27746;52.228;20.890;2024-02-26T13:12:38;4.68;;;3.58;;
42084;SDS011;27746;52.228;20.890;2024-02-26T13:15:09;4.57;;;3.08;;
42084;SDS011;27746;52.228;20.890;2024-02-26T13:17:41;5.15;;;2.80;;
42084;SDS011;27746;52.228;20.890;2024-02-26T13:20:09;12.70;;;3.75;;
42084;SDS011;27746;52.228;20.890;2024-02-26T13:22:36;6.90;;;3.10;;
42084;SDS011;27746;52.228;20.890;2024-02-26T13:25:05;10.23;;;3.50;;
42084;SDS011;27746;52.228;20.890;2024-02-26T13:27:32;5.63;;;3.58;;
42084;SDS011;27746;52.228;20.890;2024-02-26T13:30:05;5.53;;;3.08;;
42084;SDS011;27746;52.228;20.890;2024-02-26T13:32:35;8.25;;;3.90;;
42084;SDS011;27746;52.228;20.890;2024-02-26T13:35:04;8.40;;;3.53;;
42084;SDS011;27746;52.228;20.890;2024-02-26T13:37:31;7.03;;;3.72;;
42084;SDS011;27746;52.228;20.890;2024-02-26T13:39:58;5.18;;;3.25;;
42084;SDS011;27746;52.228;20.890;2024-02-26T13:42:30;8.82;;;3.85;;
42084;SDS011;27746;52.228;20.890;2024-02-26T13:44:57;9.27;;;3.83;;
42084;SDS011;27746;52.228;20.890;2024-02-26T13:47:26;6.20;;;3.40;;
42084;SDS011;27746;52.228;20.890;2024-02-26T13:49:53;5.20;;;2.50;;
42084;SDS011;27746;52.228;20.890;2024-02-26T13:52:22;9.10;;;2.95;;
42084;SDS011;27746;52.228;20.890;2024-02-26T13:54:49;10.20;;;3.40;;
42084;SDS011;27746;52.228;20.890;2024-02-26T13:57:17;6.85;;;2.80;;
42084;SDS011;27746;52.228;20.890;2024-02-26T13:59:44;6.57;;;2.92;;
42084;SDS011;27746;52.228;20.890;2024-02-26T14:02:12;6.80;;;3.17;;
42084;SDS011;27746;52.228;20.890;2024-02-26T14:04:43;8.65;;;2.95;;
42084;SDS011;27746;52.228;20.890;2024-02-26T14:07:11;9.65;;;3.17;;
42084;SDS011;27746;52.228;20.890;2024-02-26T14:09:39;9.05;;;3.08;;
42084;SDS011;27746;52.228;20.890;2024-02-26T14:12:06;16.35;;;3.40;;
42084;SDS011;27746;52.228;20.890;2024-02-26T14:14:33;7.10;;;3.10;;
42084;SDS011;27746;52.228;20.890;2024-02-26T14:17:03;4.60;;;2.35;;
42084;SDS011;27746;52.228;20.890;2024-02-26T14:19:30;10.25;;;3.42;;